Time;durP1;ratioP1;P1;durP2;ratioP2;P2;SDS_P1;SDS_P2;PMS_P1;PMS_P2;Temp;Humidity;BMP_temperature;BMP_pressure;BME280_temperature;BME280_humidity;BME280_pressure;Samples;Min_cycle;Max_cycle;Signal;HPM_P1;HPM_P2
2024/01/01 00:02:42;0.00;0.00;0.62;0.00;0.00;0.62;7.87;6.53;;;21.70;26.30;;;;;;2256046;61;20428;-52
2024/01/01 00:05:27;0.00;0.00;0.62;0.00;0.00;0.62;8.20;7.33;;;21.70;26.30;;;;;;2256993;61;20878;-53
2024/01/01 00:08:11;0.00;0.00;0.62;0.00;0.00;0.62;7.30;6.30;;;21.70;26.30;;;;;;2256710;61;20437;-58
2024/01/01 00:10:56;0.00;0.00;0.62;0.00;0.00;0.62;9.67;7.20;;;21.70;26.30;;;;;;2256922;61;20413;-58
2024/01/01 00:13:41;0.00;0.00;0.62;0.00;0.00;0.62;6.63;5.93;;;21.70;26.30;;;;;;2256093;61;20377;-57
2024/01/01 00:16:26;0.00;0.00;0.62;0.00;0.00;0.62;7.13;6.40;;;21.70;26.30;;;;;;2689061;45;20357;-56
2024/01/01 00:19:12;0.00;0.00;0.62;0.00;0.00;0.62;6.73;6.03;;;21.70;26.30;;;;;;2252957;61;20425;-50
2024/01/01 00:21:58;0.00;0.00;0.62;0.00;0.00;0.62;5.93;5.23;;;21.70;26.30;;;;;;2252227;61;20409;-55
2024/01/01 00:24:43;0.00;0.00;0.62;0.00;0.00;0.62;8.20;7.00;;;21.70;26.30;;;;;;2252902;61;20355;-54
2024/01/01 00:27:27;0.00;0.00;0.62;0.00;0.00;0.62;6.37;5.77;;;21.70;26.30;;;;;;2252853;61;20369;-57
2024/01/01 00:30:12;0.00;0.00;0.62;0.00;0.00;0.62;6.10;5.50;;;21.70;26.30;;;;;;2249230;61;20438;-57
2024/01/01 00:32:59;0.00;0.00;0.62;0.00;0.00;0.62;6.20;5.57;;;21.70;26.30;;;;;;2252620;61;20394;-57
2024/01/01 00:35:44;0.00;0.00;0.62;0.00;0.00;0.62;5.60;5.00;;;21.70;26.30;;;;;;2252423;61;20403;-58
2024/01/01 00:38:28;0.00;0.00;0.62;0.00;0.00;0.62;6.93;5.53;;;21.70;26.30;;;;;;2252827;61;20374;-56
2024/01/01 00:41:15;0.00;0.00;0.62;0.00;0.00;0.62;6.60;5.50;;;21.70;26.30;;;;;;2255221;61;20919;-57
2024/01/01 00:44:00;0.00;0.00;0.62;0.00;0.00;0.62;6.73;4.83;;;21.70;26.30;;;;;;2252380;61;20394;-55
2024/01/01 00:46:44;0.00;0.00;0.62;0.00;0.00;0.62;8.80;4.70;;;21.70;26.30;;;;;;2252762;61;20362;-54
2024/01/01 00:49:30;0.00;0.00;0.62;0.00;0.00;0.62;7.47;5.47;;;21.70;26.30;;;;;;2252885;61;20426;-54
2024/01/01 00:52:15;0.00;0.00;0.62;0.00;0.00;0.62;5.80;5.20;;;21.70;26.30;;;;;;2252094;61;20367;-54
2024/01/01 00:55:00;0.00;0.00;0.62;0.00;0.00;0.62;4.93;4.43;;;21.70;26.30;;;;;;2252931;61;20767;-56
2024/01/01 00:57:44;0.00;0.00;0.62;0.00;0.00;0.62;6.03;5.50;;;21.70;26.30;;;;;;2252709;61;20371;-53
2024/01/01 01:00:29;0.00;0.00;0.62;0.00;0.00;0.62;5.40;4.60;;;21.70;26.30;;;;;;2252812;61;20442;-55
2024/01/01 01:03:13;0.00;0.00;0.62;0.00;0.00;0.62;5.10;4.50;;;21.70;26.30;;;;;;2254782;61;20414;-57
2024/01/01 01:05:59;0.00;0.00;0.62;0.00;0.00;0.62;4.57;3.87;;;21.70;26.30;;;;;;2252576;61;20418;-55
2024/01/01 01:08:44;0.00;0.00;0.62;0.00;0.00;0.62;5.47;4.90;;;21.70;26.30;;;;;;2252691;61;20367;-56
2024/01/01 01:11:28;0.00;0.00;0.62;0.00;0.00;0.62;6.83;4.87;;;21.60;26.20;;;;;;2252662;61;20467;-53
2024/01/01 01:14:13;0.00;0.00;0.62;0.00;0.00;0.62;5.50;4.97;;;21.60;26.40;;;;;;2252997;61;20396;-53
2024/01/01 01:16:58;0.00;0.00;0.62;0.00;0.00;0.62;4.30;3.90;;;21.70;26.30;;;;;;2256313;61;20369;-54
2024/01/01 01:19:42;0.00;0.00;0.62;0.00;0.00;0.62;5.73;4.73;;;21.70;26.30;;;;;;2256424;61;20385;-54
2024/01/01 01:22:28;0.00;0.00;0.62;0.00;0.00;0.62;5.43;4.90;;;21.60;26.20;;;;;;2256354;61;20362;-57
2024/01/01 01:25:13;0.00;0.00;0.62;0.00;0.00;0.62;5.07;4.57;;;21.60;26.20;;;;;;2256312;61;20374;-56
2024/01/01 01:27:58;0.00;0.00;0.62;0.00;0.00;0.62;4.67;4.23;;;21.70;26.30;;;;;;2256352;61;20417;-55
2024/01/01 01:30:43;0.00;0.00;0.62;0.00;0.00;0.62;4.37;3.97;;;21.60;26.20;;;;;;2256800;61;20397;-52
2024/01/01 01:33:27;0.00;0.00;0.62;0.00;0.00;0.62;4.50;4.10;;;21.60;26.20;;;;;;2256044;61;20941;-59
2024/01/01 01:36:14;0.00;0.00;0.62;0.00;0.00;0.62;4.40;4.00;;;21.60;26.30;;;;;;2256249;61;20893;-57
2024/01/01 01:39:00;0.00;0.00;0.62;0.00;0.00;0.62;5.93;4.03;;;21.60;26.30;;;;;;2256323;61;20397;-53
2024/01/01 01:41:47;0.00;0.00;0.62;0.00;0.00;0.62;4.40;3.83;;;21.60;26.30;;;;;;2256155;61;20440;-52
2024/01/01 01:44:33;0.00;0.00;0.62;0.00;0.00;0.62;4.23;3.63;;;21.60;26.30;;;;;;2256045;61;20958;-51
2024/01/01 01:47:18;0.00;0.00;0.62;0.00;0.00;0.62;4.90;4.40;;;21.60;26.30;;;;;;2256719;61;20458;-57
2024/01/01 01:50:04;0.00;0.00;0.62;0.00;0.00;0.62;4.30;3.60;;;21.60;26.30;;;;;;2256380;61;20424;-56
2024/01/01 01:52:48;0.00;0.00;0.62;0.00;0.00;0.62;4.10;3.70;;;21.60;26.30;;;;;;2256484;61;20461;-58
2024/01/01 01:55:35;0.00;0.00;0.62;0.00;0.00;0.62;4.03;3.50;;;21.60;26.30;;;;;;2256737;61;20898;-53
2024/01/01 01:58:21;0.00;0.00;0.62;0.00;0.00;0.62;5.93;3.97;;;21.60;26.30;;;;;;2256037;61;20365;-53
2024/01/01 02:01:06;0.00;0.00;0.62;0.00;0.00;0.62;3.60;3.10;;;21.60;26.30;;;;;;2256268;61;20429;-56
2024/01/01 02:03:51;0.00;0.00;0.62;0.00;0.00;0.62;4.50;3.73;;;21.60;26.30;;;;;;2255731;61;20368;-56
2024/01/01 02:06:36;0.00;0.00;0.62;0.00;0.00;0.62;4.20;3.20;;;21.60;26.30;;;;;;2256448;61;20831;-53
2024/01/01 02:09:20;0.00;0.00;0.62;0.00;0.00;0.62;4.10;3.53;;;21.60;26.30;;;;;;2256463;61;20444;-56
2024/01/01 02:12:08;0.00;0.00;0.62;0.00;0.00;0.62;3.77;3.20;;;21.60;26.30;;;;;;2255952;61;20420;-56
2024/01/01 02:14:53;0.00;0.00;0.62;0.00;0.00;0.62;4.20;3.80;;;21.60;26.30;;;;;;2256202;61;20813;-56
2024/01/01 02:17:38;0.00;0.00;0.62;0.00;0.00;0.62;4.40;3.40;;;21.60;26.30;;;;;;2255902;61;20918;-52
2024/01/01 02:20:22;0.00;0.00;0.62;0.00;0.00;0.62;3.50;3.13;;;21.60;26.30;;;;;;2255684;61;20493;-55
2024/01/01 02:23:08;0.00;0.00;0.62;0.00;0.00;0.62;3.57;3.13;;;21.60;26.40;;;;;;2255778;61;20357;-55
2024/01/01 02:25:53;0.00;0.00;0.62;0.00;0.00;0.62;3.20;2.90;;;21.60;26.40;;;;;;2256230;61;20374;-59
2024/01/01 02:28:38;0.00;0.00;0.62;0.00;0.00;0.62;3.90;3.30;;;21.60;26.40;;;;;;2256344;61;20369;-54
2024/01/01 02:31:23;0.00;0.00;0.62;0.00;0.00;0.62;3.83;3.17;;;21.60;26.40;;;;;;2255495;61;20482;-51
2024/01/01 02:34:07;0.00;0.00;0.62;0.00;0.00;0.62;5.90;3.37;;;21.60;26.40;;;;;;2250937;61;20413;-60
2024/01/01 02:36:53;0.00;0.00;0.62;0.00;0.00;0.62;4.17;3.00;;;21.60;26.50;;;;;;2256514;61;20800;-58
2024/01/01 02:39:39;0.00;0.00;0.62;0.00;0.00;0.62;3.73;2.90;;;21.60;26.50;;;;;;2256394;61;20401;-56
2024/01/01 02:42:24;0.00;0.00;0.62;0.00;0.00;0.62;3.90;2.90;;;21.60;26.50;;;;;;2255682;61;20362;-55
2024/01/01 02:45:09;0.00;0.00;0.62;0.00;0.00;0.62;2.87;2.40;;;21.60;26.50;;;;;;2256011;61;20485;-54
2024/01/01 02:47:54;0.00;0.00;0.62;0.00;0.00;0.62;3.23;2.70;;;21.60;26.50;;;;;;2258938;61;20366;-57
2024/01/01 02:50:39;0.00;0.00;0.62;0.00;0.00;0.62;4.10;2.47;;;21.60;26.50;;;;;;2255591;61;20813;-58
2024/01/01 02:53:23;0.00;0.00;0.62;0.00;0.00;0.62;3.37;2.87;;;21.60;26.50;;;;;;2255868;61;20417;-59
2024/01/01 02:56:16;0.00;0.00;0.62;0.00;0.00;0.62;4.17;3.17;;;21.60;26.60;;;;;;2256101;61;20458;-58
2024/01/01 02:59:01;0.00;0.00;0.62;0.00;0.00;0.62;4.40;3.10;;;21.60;26.50;;;;;;2256432;61;20462;-56
2024/01/01 03:01:45;0.00;0.00;0.62;0.00;0.00;0.62;3.70;2.60;;;21.60;26.50;;;;;;2256124;61;20465;-56
2024/01/01 03:04:31;0.00;0.00;0.62;0.00;0.00;0.62;3.67;2.53;;;21.60;26.60;;;;;;2256093;61;20775;-57
2024/01/01 03:07:16;0.00;0.00;0.62;0.00;0.00;0.62;2.60;2.40;;;21.70;26.60;;;;;;2256592;61;20853;-57
2024/01/01 03:10:00;0.00;0.00;0.62;0.00;0.00;0.62;2.50;1.90;;;21.70;26.70;;;;;;2255979;61;20796;-59
2024/01/01 03:12:46;0.00;0.00;0.62;0.00;0.00;0.62;4.23;2.73;;;21.60;26.60;;;;;;2255702;61;20827;-57
2024/01/01 03:15:31;0.00;0.00;0.62;0.00;0.00;0.62;3.57;2.27;;;21.60;26.60;;;;;;2256191;61;20381;-59
2024/01/01 03:18:17;0.00;0.00;0.62;0.00;0.00;0.62;2.70;2.17;;;21.60;26.60;;;;;;2256058;61;21031;-52
2024/01/01 03:21:03;0.00;0.00;0.62;0.00;0.00;0.62;3.80;3.00;;;21.70;26.70;;;;;;2256140;61;20393;-54
2024/01/01 03:23:48;0.00;0.00;0.62;0.00;0.00;0.62;3.00;2.30;;;21.70;26.70;;;;;;2256308;61;20372;-58
2024/01/01 03:26:32;0.00;0.00;0.62;0.00;0.00;0.62;2.80;2.27;;;21.70;26.70;;;;;;2256004;61;20398;-53
2024/01/01 03:29:18;0.00;0.00;0.62;0.00;0.00;0.62;3.40;2.80;;;21.70;26.70;;;;;;2256220;61;20378;-55
2024/01/01 03:32:04;0.00;0.00;0.62;0.00;0.00;0.62;2.70;2.20;;;21.70;26.70;;;;;;2255575;61;20910;-58
2024/01/01 03:34:49;0.00;0.00;0.62;0.00;0.00;0.62;2.87;2.17;;;21.70;26.70;;;;;;2256177;61;20458;-57
2024/01/01 03:37:33;0.00;0.00;0.62;0.00;0.00;0.62;3.70;2.60;;;21.70;26.70;;;;;;2256663;61;20412;-53
2024/01/01 03:40:18;0.00;0.00;0.62;0.00;0.00;0.62;3.43;1.90;;;21.70;26.70;;;;;;2257180;61;20412;-55
2024/01/01 03:43:03;0.00;0.00;0.62;0.00;0.00;0.62;3.10;2.33;;;21.70;26.70;;;;;;2256564;61;20887;-54
2024/01/01 03:45:49;0.00;0.00;0.62;0.00;0.00;0.62;2.97;2.23;;;21.70;26.70;;;;;;2256585;61;20377;-56
2024/01/01 03:48:34;0.00;0.00;0.62;0.00;0.00;0.62;2.57;2.17;;;21.70;26.70;;;;;;2256578;61;20412;-58
2024/01/01 03:51:18;0.00;0.00;0.62;0.00;0.00;0.62;3.20;2.40;;;21.70;26.70;;;;;;2253440;61;20505;-55
2024/01/01 03:54:03;0.00;0.00;0.62;0.00;0.00;0.62;1.77;1.37;;;21.70;26.70;;;;;;2252252;61;20370;-56
2024/01/01 03:56:47;0.00;0.00;0.62;0.00;0.00;0.62;2.70;2.00;;;21.70;26.70;;;;;;2252138;61;20367;-58
2024/01/01 03:59:32;0.00;0.00;0.62;0.00;0.00;0.62;3.10;2.20;;;21.70;26.70;;;;;;2252445;61;20361;-56
2024/01/01 04:02:18;0.00;0.00;0.62;0.00;0.00;0.62;3.00;2.50;;;21.70;26.70;;;;;;2252431;61;20375;-56
2024/01/01 04:05:03;0.00;0.00;0.62;0.00;0.00;0.62;2.90;1.90;;;21.70;26.70;;;;;;2252157;61;20788;-59
2024/01/01 04:07:48;0.00;0.00;0.62;0.00;0.00;0.62;3.70;2.10;;;21.70;26.60;;;;;;2252965;61;20414;-60
2024/01/01 04:10:33;0.00;0.00;0.62;0.00;0.00;0.62;4.93;2.73;;;21.70;26.20;;;;;;2252398;61;20542;-61
2024/01/01 04:13:17;0.00;0.00;0.62;0.00;0.00;0.62;5.03;2.67;;;21.70;25.90;;;;;;2252632;61;20362;-60
2024/01/01 04:16:02;0.00;0.00;0.62;0.00;0.00;0.62;3.53;2.17;;;21.60;25.60;;;;;;2256610;61;20437;-56
2024/01/01 04:18:48;0.00;0.00;0.62;0.00;0.00;0.62;4.20;3.27;;;21.50;25.40;;;;;;2256477;61;20389;-59
2024/01/01 04:21:32;0.00;0.00;0.62;0.00;0.00;0.62;3.20;2.37;;;21.50;25.30;;;;;;2256799;61;20417;-58
2024/01/01 04:24:17;0.00;0.00;0.62;0.00;0.00;0.62;4.23;2.37;;;21.40;25.10;;;;;;2257098;61;20525;-60
2024/01/01 04:27:02;0.00;0.00;0.62;0.00;0.00;0.62;4.93;3.30;;;21.30;24.90;;;;;;2256558;61;20362;-61
2024/01/01 04:29:47;0.00;0.00;0.62;0.00;0.00;0.62;3.33;2.33;;;21.20;24.90;;;;;;2256444;61;20392;-58
2024/01/01 04:32:32;0.00;0.00;0.62;0.00;0.00;0.62;5.40;2.90;;;21.10;24.80;;;;;;2256128;61;20362;-58
2024/01/01 04:35:18;0.00;0.00;0.62;0.00;0.00;0.62;5.30;2.60;;;21.00;24.80;;;;;;2256540;61;20366;-60
2024/01/01 04:38:03;0.00;0.00;0.62;0.00;0.00;0.62;3.50;2.07;;;20.90;24.80;;;;;;2256979;61;20528;-57
2024/01/01 04:40:48;0.00;0.00;0.62;0.00;0.00;0.62;3.40;2.10;;;20.80;24.80;;;;;;2256252;61;20381;-60
2024/01/01 04:43:33;0.00;0.00;0.62;0.00;0.00;0.62;4.67;2.77;;;20.80;24.80;;;;;;2256507;61;20446;-56
2024/01/01 04:46:18;0.00;0.00;0.62;0.00;0.00;0.62;8.77;3.30;;;20.70;24.70;;;;;;2256761;61;20397;-58
2024/01/01 04:49:02;0.00;0.00;0.62;0.00;0.00;0.62;3.67;2.53;;;20.60;24.80;;;;;;2256465;61;20369;-59
2024/01/01 04:51:48;0.00;0.00;0.62;0.00;0.00;0.62;4.00;2.33;;;20.50;24.80;;;;;;2256562;61;20366;-59
2024/01/01 04:54:33;0.00;0.00;0.62;0.00;0.00;0.62;2.97;1.80;;;20.50;24.90;;;;;;2256679;61;20397;-58
2024/01/01 04:57:17;0.00;0.00;0.62;0.00;0.00;0.62;4.53;2.50;;;20.40;24.90;;;;;;2256812;61;20538;-59
2024/01/01 05:00:03;0.00;0.00;0.62;0.00;0.00;0.62;5.00;2.37;;;20.40;24.90;;;;;;2257029;61;20389;-57
2024/01/01 05:02:47;0.00;0.00;0.62;0.00;0.00;0.62;5.33;2.50;;;20.30;24.90;;;;;;2255966;61;20370;-61
2024/01/01 05:05:32;0.00;0.00;0.62;0.00;0.00;0.62;4.17;2.63;;;20.30;24.80;;;;;;2256831;61;20393;-54
2024/01/01 05:08:18;0.00;0.00;0.62;0.00;0.00;0.62;3.67;1.93;;;20.20;24.70;;;;;;2256886;61;20933;-58
2024/01/01 05:11:04;0.00;0.00;0.62;0.00;0.00;0.62;4.77;2.57;;;20.20;24.70;;;;;;2255682;61;20420;-61
2024/01/01 05:13:49;0.00;0.00;0.62;0.00;0.00;0.62;3.67;1.90;;;20.10;24.60;;;;;;2256413;61;20365;-58
2024/01/01 05:16:34;0.00;0.00;0.62;0.00;0.00;0.62;3.70;2.03;;;20.10;24.70;;;;;;2256130;61;20366;-60
2024/01/01 05:19:19;0.00;0.00;0.62;0.00;0.00;0.62;4.37;2.17;;;20.00;24.70;;;;;;2256890;61;20426;-56
2024/01/01 05:22:04;0.00;0.00;0.62;0.00;0.00;0.62;4.20;2.40;;;20.00;24.80;;;;;;2255797;61;20412;-60
2024/01/01 05:24:50;0.00;0.00;0.62;0.00;0.00;0.62;5.07;2.47;;;19.90;24.70;;;;;;2256323;61;20369;-58
2024/01/01 05:27:34;0.00;0.00;0.62;0.00;0.00;0.62;3.80;2.70;;;19.90;24.70;;;;;;2256711;61;20882;-58
2024/01/01 05:30:19;0.00;0.00;0.62;0.00;0.00;0.62;3.30;2.30;;;19.80;24.50;;;;;;2256602;61;20473;-59
2024/01/01 05:33:04;0.00;0.00;0.62;0.00;0.00;0.62;4.50;2.30;;;19.80;24.60;;;;;;2255988;61;20997;-57
2024/01/01 05:35:48;0.00;0.00;0.62;0.00;0.00;0.62;5.77;2.37;;;19.80;24.60;;;;;;2256995;61;20370;-61
2024/01/01 05:38:33;0.00;0.00;0.62;0.00;0.00;0.62;3.90;1.80;;;19.70;24.50;;;;;;2256615;61;20397;-61
2024/01/01 05:41:19;0.00;0.00;0.62;0.00;0.00;0.62;5.20;2.80;;;19.60;24.40;;;;;;2255984;61;20429;-59
2024/01/01 05:44:04;0.00;0.00;0.62;0.00;0.00;0.62;4.80;2.43;;;19.60;24.40;;;;;;2256757;61;20892;-59
2024/01/01 05:46:49;0.00;0.00;0.62;0.00;0.00;0.62;2.90;1.80;;;19.50;24.40;;;;;;2256533;61;20373;-60
2024/01/01 05:49:34;0.00;0.00;0.62;0.00;0.00;0.62;4.40;2.20;;;19.50;24.40;;;;;;2256027;61;20413;-62
2024/01/01 05:52:21;0.00;0.00;0.62;0.00;0.00;0.62;4.93;1.80;;;19.40;24.40;;;;;;2256364;61;20362;-60
2024/01/01 05:55:07;0.00;0.00;0.62;0.00;0.00;0.62;4.27;2.07;;;19.30;24.50;;;;;;2256443;61;20357;-60
2024/01/01 05:57:53;0.00;0.00;0.62;0.00;0.00;0.62;8.80;2.47;;;19.30;24.70;;;;;;2256726;61;20394;-61
2024/01/01 06:00:39;0.00;0.00;0.62;0.00;0.00;0.62;4.17;2.13;;;19.20;24.70;;;;;;2256488;61;20413;-59
2024/01/01 06:03:23;0.00;0.00;0.62;0.00;0.00;0.62;4.07;2.17;;;19.10;24.90;;;;;;2256037;61;20390;-55
2024/01/01 06:06:09;0.00;0.00;0.62;0.00;0.00;0.62;3.23;1.90;;;19.10;25.20;;;;;;2256666;61;20357;-60
2024/01/01 06:08:54;0.00;0.00;0.62;0.00;0.00;0.62;3.30;1.60;;;19.00;25.30;;;;;;2256294;61;20811;-59
2024/01/01 06:11:38;0.00;0.00;0.62;0.00;0.00;0.62;2.30;1.40;;;18.90;25.40;;;;;;2256086;61;20813;-62
2024/01/01 06:14:24;0.00;0.00;0.62;0.00;0.00;0.62;2.40;1.20;;;18.90;25.70;;;;;;2256747;61;20370;-56
2024/01/01 06:17:09;0.00;0.00;0.62;0.00;0.00;0.62;4.70;1.70;;;18.80;25.80;;;;;;2255858;61;20420;-58
2024/01/01 06:19:53;0.00;0.00;0.62;0.00;0.00;0.62;3.30;1.60;;;18.70;25.70;;;;;;2256547;61;20385;-58
2024/01/01 06:22:39;0.00;0.00;0.62;0.00;0.00;0.62;2.87;1.57;;;18.70;25.70;;;;;;2256234;61;20814;-58
2024/01/01 06:25:23;0.00;0.00;0.62;0.00;0.00;0.62;3.00;1.70;;;18.60;25.80;;;;;;2256312;61;20424;-54
2024/01/01 06:28:07;0.00;0.00;0.62;0.00;0.00;0.62;2.83;1.60;;;18.60;26.00;;;;;;2256440;61;20405;-59
2024/01/01 06:30:53;0.00;0.00;0.62;0.00;0.00;0.62;3.80;1.60;;;18.60;26.10;;;;;;2256191;61;20941;-57
2024/01/01 06:33:38;0.00;0.00;0.62;0.00;0.00;0.62;3.83;1.60;;;18.60;26.30;;;;;;2256261;61;20366;-58
2024/01/01 06:36:22;0.00;0.00;0.62;0.00;0.00;0.62;4.03;1.80;;;18.60;26.30;;;;;;2256461;61;20902;-59
2024/01/01 06:39:07;0.00;0.00;0.62;0.00;0.00;0.62;3.93;1.80;;;18.50;26.30;;;;;;2256147;61;20457;-59
2024/01/01 06:41:51;0.00;0.00;0.62;0.00;0.00;0.62;6.20;1.67;;;18.60;26.40;;;;;;2255664;61;20362;-57
2024/01/01 06:44:36;0.00;0.00;0.62;0.00;0.00;0.62;4.97;2.10;;;18.50;26.40;;;;;;2256520;61;20425;-58
2024/01/01 06:47:23;0.00;0.00;0.62;0.00;0.00;0.62;3.17;1.60;;;18.50;26.40;;;;;;2256085;61;20887;-55
2024/01/01 06:50:08;0.00;0.00;0.62;0.00;0.00;0.62;4.10;1.87;;;18.50;26.50;;;;;;2256373;61;21002;-57
2024/01/01 06:52:53;0.00;0.00;0.62;0.00;0.00;0.62;5.53;2.17;;;18.50;27.10;;;;;;2256007;61;20953;-57
2024/01/01 06:55:38;0.00;0.00;0.62;0.00;0.00;0.62;2.97;1.33;;;18.50;26.70;;;;;;2256275;61;20550;-59
2024/01/01 06:58:23;0.00;0.00;0.62;0.00;0.00;0.62;2.57;1.50;;;18.50;26.70;;;;;;2256652;61;20772;-56
2024/01/01 07:01:07;0.00;0.00;0.62;0.00;0.00;0.62;3.40;1.50;;;18.40;26.80;;;;;;2255975;61;20381;-56
2024/01/01 07:03:53;0.00;0.00;0.62;0.00;0.00;0.62;3.27;2.00;;;18.40;26.80;;;;;;2256078;61;20362;-60
2024/01/01 07:06:38;0.00;0.00;0.62;0.00;0.00;0.62;2.93;1.57;;;18.40;26.80;;;;;;2256402;61;20365;-59
2024/01/01 07:09:22;0.00;0.00;0.62;0.00;0.00;0.62;3.30;1.60;;;18.40;26.90;;;;;;2255979;61;20362;-59
2024/01/01 07:12:20;0.00;0.00;0.62;0.00;0.00;0.62;2.53;1.63;;;18.40;26.90;;;;;;2255736;61;20902;-57
2024/01/01 07:15:06;0.00;0.00;0.62;0.00;0.00;0.62;3.10;1.60;;;18.30;26.90;;;;;;2256289;61;20462;-57
2024/01/01 07:17:50;0.00;0.00;0.62;0.00;0.00;0.62;3.00;1.60;;;18.40;27.10;;;;;;2256459;61;20858;-57
2024/01/01 07:20:36;0.00;0.00;0.62;0.00;0.00;0.62;3.60;1.60;;;18.40;27.20;;;;;;2256401;61;20898;-59
2024/01/01 07:23:21;0.00;0.00;0.62;0.00;0.00;0.62;3.93;1.67;;;18.30;27.20;;;;;;2255198;61;20366;-57
2024/01/01 07:26:06;0.00;0.00;0.62;0.00;0.00;0.62;4.70;2.33;;;18.30;27.20;;;;;;2256052;61;20821;-57
2024/01/01 07:28:51;0.00;0.00;0.62;0.00;0.00;0.62;2.87;1.70;;;18.30;27.30;;;;;;2255809;61;20887;-60
2024/01/01 07:31:36;0.00;0.00;0.62;0.00;0.00;0.62;4.07;2.20;;;18.30;27.30;;;;;;2255396;61;20402;-58
2024/01/01 07:34:20;0.00;0.00;0.62;0.00;0.00;0.62;4.10;2.43;;;18.30;27.40;;;;;;2256234;61;20366;-59
2024/01/01 07:37:07;0.00;0.00;0.62;0.00;0.00;0.62;2.43;1.50;;;18.20;27.40;;;;;;2256258;61;20378;-58
2024/01/01 07:39:51;0.00;0.00;0.62;0.00;0.00;0.62;3.57;1.70;;;18.20;27.40;;;;;;2255916;61;20396;-60
2024/01/01 07:42:36;0.00;0.00;0.62;0.00;0.00;0.62;3.90;1.60;;;18.20;27.50;;;;;;2255945;61;20373;-57
2024/01/01 07:45:22;0.00;0.00;0.62;0.00;0.00;0.62;2.17;1.17;;;18.20;27.50;;;;;;2255451;61;20422;-59
2024/01/01 07:48:09;0.00;0.00;0.62;0.00;0.00;0.62;5.13;1.73;;;18.20;27.60;;;;;;2256472;61;20409;-59
2024/01/01 07:50:54;0.00;0.00;0.62;0.00;0.00;0.62;3.23;1.20;;;18.10;27.60;;;;;;2256184;61;20842;-60
2024/01/01 07:53:42;0.00;0.00;0.62;0.00;0.00;0.62;2.80;1.50;;;18.10;27.70;;;;;;2255114;61;20370;-61
2024/01/01 07:56:27;0.00;0.00;0.62;0.00;0.00;0.62;5.30;1.93;;;18.10;27.80;;;;;;2256230;61;20819;-59
2024/01/01 07:59:12;0.00;0.00;0.62;0.00;0.00;0.62;4.70;1.90;;;18.10;27.80;;;;;;2256388;61;20405;-55
2024/01/01 08:01:56;0.00;0.00;0.62;0.00;0.00;0.62;6.60;2.00;;;18.10;27.80;;;;;;2255350;61;20424;-54
2024/01/01 08:04:41;0.00;0.00;0.62;0.00;0.00;0.62;4.93;1.90;;;18.10;27.90;;;;;;2256211;61;20983;-59
2024/01/01 08:07:26;0.00;0.00;0.62;0.00;0.00;0.62;2.87;1.70;;;18.10;27.90;;;;;;2255547;61;20405;-56
2024/01/01 08:10:11;0.00;0.00;0.62;0.00;0.00;0.62;3.13;1.40;;;18.00;28.00;;;;;;2256248;61;20394;-59
2024/01/01 08:12:56;0.00;0.00;0.62;0.00;0.00;0.62;2.57;1.27;;;18.00;28.00;;;;;;2255556;61;20450;-55
2024/01/01 08:15:41;0.00;0.00;0.62;0.00;0.00;0.62;4.70;1.60;;;18.00;28.00;;;;;;2255891;61;20365;-58
2024/01/01 08:18:26;0.00;0.00;0.62;0.00;0.00;0.62;3.33;1.50;;;18.00;28.10;;;;;;2256609;61;20551;-56
2024/01/01 08:21:10;0.00;0.00;0.62;0.00;0.00;0.62;6.57;1.90;;;18.00;28.20;;;;;;2256240;61;20485;-61
2024/01/01 08:23:55;0.00;0.00;0.62;0.00;0.00;0.62;3.27;1.50;;;18.00;28.20;;;;;;2255831;61;20772;-56
2024/01/01 08:26:41;0.00;0.00;0.62;0.00;0.00;0.62;4.53;1.50;;;18.00;28.30;;;;;;2256989;61;20837;-57
2024/01/01 08:29:25;0.00;0.00;0.62;0.00;0.00;0.62;5.23;1.90;;;17.90;28.30;;;;;;2256349;61;20929;-60
2024/01/01 08:32:10;0.00;0.00;0.62;0.00;0.00;0.62;4.50;1.60;;;17.90;28.30;;;;;;2256298;61;20373;-58
2024/01/01 08:34:54;0.00;0.00;0.62;0.00;0.00;0.62;2.50;1.30;;;17.90;28.30;;;;;;2256740;61;20432;-60
2024/01/01 08:37:39;0.00;0.00;0.62;0.00;0.00;0.62;2.70;1.40;;;17.90;28.40;;;;;;2256420;61;20349;-58
2024/01/01 08:40:24;0.00;0.00;0.62;0.00;0.00;0.62;5.67;1.70;;;17.90;28.50;;;;;;2256883;61;20373;-55
2024/01/01 08:43:10;0.00;0.00;0.62;0.00;0.00;0.62;4.63;1.53;;;17.90;28.60;;;;;;2256415;61;20408;-55
2024/01/01 08:45:55;0.00;0.00;0.62;0.00;0.00;0.62;4.60;2.13;;;17.90;28.60;;;;;;2256300;61;20382;-52
2024/01/01 08:48:39;0.00;0.00;0.62;0.00;0.00;0.62;3.93;1.70;;;17.90;28.60;;;;;;2256866;61;20390;-58
2024/01/01 08:51:24;0.00;0.00;0.62;0.00;0.00;0.62;4.17;1.60;;;17.90;28.60;;;;;;2256730;61;20394;-60
2024/01/01 08:54:08;0.00;0.00;0.62;0.00;0.00;0.62;6.00;1.40;;;17.90;28.70;;;;;;2256595;61;20361;-60
2024/01/01 08:56:53;0.00;0.00;0.62;0.00;0.00;0.62;4.50;1.30;;;17.90;28.70;;;;;;2256217;61;20448;-57
2024/01/01 08:59:41;0.00;0.00;0.62;0.00;0.00;0.62;5.00;1.90;;;17.80;28.60;;;;;;2256511;61;20397;-58
2024/01/01 09:02:27;0.00;0.00;0.62;0.00;0.00;0.62;11.73;1.90;;;17.80;28.60;;;;;;2256211;61;20409;-54
2024/01/01 09:05:15;0.00;0.00;0.62;0.00;0.00;0.62;3.57;1.50;;;17.80;28.60;;;;;;2256849;61;20373;-53
2024/01/01 09:08:01;0.00;0.00;0.62;0.00;0.00;0.62;4.70;2.33;;;17.80;28.70;;;;;;2256475;61;20385;-52
2024/01/01 09:10:45;0.00;0.00;0.62;0.00;0.00;0.62;4.43;1.57;;;17.80;28.70;;;;;;2256261;61;20840;-57
2024/01/01 09:13:30;0.00;0.00;0.62;0.00;0.00;0.62;3.87;1.47;;;17.80;28.80;;;;;;2256495;61;20409;-60
2024/01/01 09:16:16;0.00;0.00;0.62;0.00;0.00;0.62;4.33;1.70;;;17.80;28.80;;;;;;2589870;45;20837;-60
2024/01/01 09:19:00;0.00;0.00;0.62;0.00;0.00;0.62;3.20;1.70;;;17.80;28.90;;;;;;2256659;61;20369;-55
2024/01/01 09:21:45;0.00;0.00;0.62;0.00;0.00;0.62;3.73;1.80;;;17.70;29.30;;;;;;2255919;61;20385;-56
2024/01/01 09:24:30;0.00;0.00;0.62;0.00;0.00;0.62;6.80;1.77;;;17.70;28.80;;;;;;2256988;61;20412;-51
2024/01/01 09:27:14;0.00;0.00;0.62;0.00;0.00;0.62;5.00;1.97;;;17.70;28.80;;;;;;2256109;61;20929;-57
2024/01/01 09:29:59;0.00;0.00;0.62;0.00;0.00;0.62;3.40;1.53;;;17.70;28.90;;;;;;2256246;61;20424;-60
2024/01/01 09:32:44;0.00;0.00;0.62;0.00;0.00;0.62;2.90;1.53;;;17.70;29.00;;;;;;2256406;61;20505;-59
2024/01/01 09:35:29;0.00;0.00;0.62;0.00;0.00;0.62;3.30;1.40;;;17.70;29.00;;;;;;2256537;61;20496;-55
2024/01/01 09:38:14;0.00;0.00;0.62;0.00;0.00;0.62;4.40;1.30;;;17.70;29.00;;;;;;2256580;61;20413;-59
2024/01/01 09:40:59;0.00;0.00;0.62;0.00;0.00;0.62;5.40;2.00;;;17.70;29.00;;;;;;2256621;61;20859;-58
2024/01/01 09:43:44;0.00;0.00;0.62;0.00;0.00;0.62;2.93;1.70;;;17.70;29.00;;;;;;2256011;61;20346;-54
2024/01/01 09:46:33;0.00;0.00;0.62;0.00;0.00;0.62;4.13;1.63;;;17.70;29.10;;;;;;2256434;61;20361;-54
2024/01/01 09:49:18;0.00;0.00;0.62;0.00;0.00;0.62;5.00;1.73;;;17.60;29.00;;;;;;2257053;61;20952;-54
2024/01/01 09:52:04;0.00;0.00;0.62;0.00;0.00;0.62;3.70;1.57;;;17.70;29.10;;;;;;2255824;61;20393;-56
2024/01/01 09:54:48;0.00;0.00;0.62;0.00;0.00;0.62;6.50;2.10;;;17.60;29.10;;;;;;2256571;61;20405;-65
2024/01/01 09:57:33;0.00;0.00;0.62;0.00;0.00;0.62;4.23;1.63;;;17.60;29.10;;;;;;2256510;61;20362;-60
2024/01/01 10:00:21;0.00;0.00;0.62;0.00;0.00;0.62;6.60;1.50;;;17.60;29.20;;;;;;2256199;61;20469;-57
2024/01/01 10:03:10;0.00;0.00;0.62;0.00;0.00;0.62;3.20;1.40;;;17.60;29.20;;;;;;2255844;61;20763;-62
2024/01/01 10:06:07;0.00;0.00;0.62;0.00;0.00;0.62;4.03;1.57;;;17.60;29.10;;;;;;2256167;61;20433;-58
2024/01/01 10:09:03;0.00;0.00;0.62;0.00;0.00;0.62;3.67;1.63;;;17.60;29.20;;;;;;2255637;61;20366;-57
2024/01/01 10:11:48;0.00;0.00;0.62;0.00;0.00;0.62;3.10;1.27;;;17.60;29.10;;;;;;2251992;61;20430;-59
2024/01/01 10:14:33;0.00;0.00;0.62;0.00;0.00;0.62;3.03;1.50;;;17.70;29.20;;;;;;2253763;61;20366;-55
2024/01/01 10:17:18;0.00;0.00;0.62;0.00;0.00;0.62;2.03;1.20;;;17.70;29.20;;;;;;2514106;53;20397;-54
2024/01/01 10:20:04;0.00;0.00;0.62;0.00;0.00;0.62;1.90;0.80;;;17.80;29.20;;;;;;2256437;61;20429;-55
2024/01/01 10:22:49;0.00;0.00;0.62;0.00;0.00;0.62;2.07;1.03;;;17.90;29.30;;;;;;2256337;61;20906;-56
2024/01/01 10:25:34;0.00;0.00;0.62;0.00;0.00;0.62;2.63;0.90;;;17.90;29.20;;;;;;2256684;61;20496;-57
2024/01/01 10:28:24;0.00;0.00;0.62;0.00;0.00;0.62;1.80;0.87;;;18.00;29.20;;;;;;2256433;61;20436;-55
2024/01/01 10:31:12;0.00;0.00;0.62;0.00;0.00;0.62;5.47;1.23;;;18.10;29.20;;;;;;2255462;61;20397;-57
2024/01/01 10:33:59;0.00;0.00;0.62;0.00;0.00;0.62;3.77;1.10;;;18.10;29.10;;;;;;2256169;61;20382;-55
2024/01/01 10:36:44;0.00;0.00;0.62;0.00;0.00;0.62;2.23;1.10;;;18.20;29.10;;;;;;2256123;61;20389;-53
2024/01/01 10:39:32;0.00;0.00;0.62;0.00;0.00;0.62;3.00;1.10;;;18.20;29.00;;;;;;2256661;61;20416;-53
2024/01/01 10:42:16;0.00;0.00;0.62;0.00;0.00;0.62;2.93;1.10;;;18.30;29.00;;;;;;2256252;61;20780;-57
2024/01/01 10:45:04;0.00;0.00;0.62;0.00;0.00;0.62;2.20;1.23;;;18.30;29.00;;;;;;2256624;61;20473;-56
2024/01/01 10:47:52;0.00;0.00;0.62;0.00;0.00;0.62;2.30;1.50;;;18.40;29.00;;;;;;2256138;61;20910;-57
2024/01/01 10:50:43;0.00;0.00;0.62;0.00;0.00;0.62;14.43;2.50;;;18.50;29.00;;;;;;2256341;61;20499;-54
2024/01/01 10:53:46;0.00;0.00;0.62;0.00;0.00;0.62;2.90;1.63;;;18.50;28.90;;;;;;2256290;61;20397;-60